sensor_id;sensor_type;location;lat;lon;timestamp;P1;durP1;ratioP1;P2;durP2;ratioP2
11970;SDS011;6045;42.682;23.294;2022-12-16T00:01:01;48.40;;;27.83;;
11970;SDS011;6045;42.682;23.294;2022-12-16T00:03:29;36.77;;;23.37;;
11970;SDS011;6045;42.682;23.294;2022-12-16T00:05:55;41.17;;;28.50;;
11970;SDS011;6045;42.682;23.294;2022-12-16T00:08:22;42.23;;;29.53;;
11970;SDS011;6045;42.682;23.294;2022-12-16T00:10:50;49.87;;;26.13;;
11970;SDS011;6045;42.682;23.294;2022-12-16T00:13:22;41.33;;;25.23;;
11970;SDS011;6045;42.682;23.294;2022-12-16T00:15:49;42.30;;;26.67;;
11970;SDS011;6045;42.682;23.294;2022-12-16T00:18:16;51.27;;;26.00;;
11970;SDS011;6045;42.682;23.294;2022-12-16T00:20:44;51.07;;;26.93;;
11970;SDS011;6045;42.682;23.294;2022-12-16T00:23:11;45.37;;;27.73;;
11970;SDS011;6045;42.682;23.294;2022-12-16T00:25:39;47.90;;;25.77;;
11970;SDS011;6045;42.682;23.294;2022-12-16T00:28:08;45.87;;;23.13;;
11970;SDS011;6045;42.682;23.294;2022-12-16T00:30:36;54.13;;;26.63;;
11970;SDS011;6045;42.682;23.294;2022-12-16T00:33:03;59.50;;;29.97;;
11970;SDS011;6045;42.682;23.294;2022-12-16T00:35:30;61.27;;;32.37;;
11970;SDS011;6045;42.682;23.294;2022-12-16T00:37:57;37.03;;;26.47;;
11970;SDS011;6045;42.682;23.294;2022-12-16T00:40:24;37.63;;;26.47;;
11970;SDS011;6045;42.682;23.294;2022-12-16T00:42:51;44.93;;;28.50;;
11970;SDS011;6045;42.682;23.294;2022-12-16T00:45:19;54.73;;;27.83;;
11970;SDS011;6045;42.682;23.294;2022-12-16T00:47:47;46.93;;;25.10;;
11970;SDS011;6045;42.682;23.294;2022-12-16T00:50:15;28.27;;;17.33;;
11970;SDS011;6045;42.682;23.294;2022-12-16T00:52:42;45.73;;;25.80;;
11970;SDS011;6045;42.682;23.294;2022-12-16T00:55:09;38.53;;;24.73;;
11970;SDS011;6045;42.682;23.294;2022-12-16T00:57:36;47.03;;;29.07;;
11970;SDS011;6045;42.682;23.294;2022-12-16T01:00:04;43.50;;;25.73;;
11970;SDS011;6045;42.682;23.294;2022-12-16T01:02:38;46.50;;;28.70;;
11970;SDS011;6045;42.682;23.294;2022-12-16T01:05:06;47.53;;;28.83;;
11970;SDS011;6045;42.682;23.294;2022-12-16T01:07:33;36.63;;;27.57;;
11970;SDS011;6045;42.682;23.294;2022-12-16T01:10:00;61.10;;;31.83;;
11970;SDS011;6045;42.682;23.294;2022-12-16T01:12:27;59.53;;;28.37;;
11970;SDS011;6045;42.682;23.294;2022-12-16T01:14:54;45.50;;;26.40;;
11970;SDS011;6045;42.682;23.294;2022-12-16T01:17:20;45.20;;;30.60;;
11970;SDS011;6045;42.682;23.294;2022-12-16T01:19:51;40.53;;;27.60;;
11970;SDS011;6045;42.682;23.294;2022-12-16T01:22:18;43.50;;;25.70;;
11970;SDS011;6045;42.682;23.294;2022-12-16T01:24:45;46.10;;;24.30;;
11970;SDS011;6045;42.682;23.294;2022-12-16T01:27:13;51.10;;;27.50;;
11970;SDS011;6045;42.682;23.294;2022-12-16T01:29:40;46.70;;;26.87;;
11970;SDS011;6045;42.682;23.294;2022-12-16T01:32:07;43.73;;;27.23;;
11970;SDS011;6045;42.682;23.294;2022-12-16T01:34:37;48.77;;;28.80;;
11970;SDS011;6045;42.682;23.294;2022-12-16T01:37:05;52.73;;;29.10;;
11970;SDS011;6045;42.682;23.294;2022-12-16T01:39:32;51.40;;;27.97;;
11970;SDS011;6045;42.682;23.294;2022-12-16T01:41:58;49.07;;;27.90;;
11970;SDS011;6045;42.682;23.294;2022-12-16T01:44:25;40.87;;;22.03;;
11970;SDS011;6045;42.682;23.294;2022-12-16T01:46:53;43.17;;;23.83;;
11970;SDS011;6045;42.682;23.294;2022-12-16T01:49:23;46.97;;;23.37;;
11970;SDS011;6045;42.682;23.294;2022-12-16T01:51:53;39.40;;;22.03;;
11970;SDS011;6045;42.682;23.294;2022-12-16T01:54:25;45.40;;;21.90;;
11970;SDS011;6045;42.682;23.294;2022-12-16T01:56:55;39.47;;;22.27;;
11970;SDS011;6045;42.682;23.294;2022-12-16T01:59:26;37.57;;;21.03;;
11970;SDS011;6045;42.682;23.294;2022-12-16T02:01:55;34.50;;;21.87;;
11970;SDS011;6045;42.682;23.294;2022-12-16T02:04:23;51.70;;;23.97;;
11970;SDS011;6045;42.682;23.294;2022-12-16T02:06:50;29.10;;;17.83;;
11970;SDS011;6045;42.682;23.294;2022-12-16T02:09:17;37.10;;;20.60;;
11970;SDS011;6045;42.682;23.294;2022-12-16T02:12:08;58.87;;;23.87;;
11970;SDS011;6045;42.682;23.294;2022-12-16T02:14:52;37.23;;;22.10;;
11970;SDS011;6045;42.682;23.294;2022-12-16T02:17:42;27.13;;;17.57;;
11970;SDS011;6045;42.682;23.294;2022-12-16T02:20:21;24.40;;;16.57;;
11970;SDS011;6045;42.682;23.294;2022-12-16T02:26:28;30.07;;;19.13;;
11970;SDS011;6045;42.682;23.294;2022-12-16T02:29:10;38.10;;;20.20;;
11970;SDS011;6045;42.682;23.294;2022-12-16T02:31:59;40.40;;;20.27;;
11970;SDS011;6045;42.682;23.294;2022-12-16T02:34:35;32.07;;;17.60;;
11970;SDS011;6045;42.682;23.294;2022-12-16T02:37:12;34.93;;;19.60;;
11970;SDS011;6045;42.682;23.294;2022-12-16T02:39:47;41.97;;;19.80;;
11970;SDS011;6045;42.682;23.294;2022-12-16T02:42:18;33.17;;;16.47;;
11970;SDS011;6045;42.682;23.294;2022-12-16T02:44:52;29.03;;;16.30;;
11970;SDS011;6045;42.682;23.294;2022-12-16T02:47:26;29.60;;;16.07;;
11970;SDS011;6045;42.682;23.294;2022-12-16T02:49:53;24.27;;;14.33;;
11970;SDS011;6045;42.682;23.294;2022-12-16T02:52:22;29.67;;;16.00;;
11970;SDS011;6045;42.682;23.294;2022-12-16T02:54:50;21.10;;;13.47;;
11970;SDS011;6045;42.682;23.294;2022-12-16T02:57:33;24.87;;;13.93;;
11970;SDS011;6045;42.682;23.294;2022-12-16T03:00:16;16.10;;;11.53;;
11970;SDS011;6045;42.682;23.294;2022-12-16T03:02:48;19.47;;;12.63;;
11970;SDS011;6045;42.682;23.294;2022-12-16T03:05:22;21.87;;;13.23;;
11970;SDS011;6045;42.682;23.294;2022-12-16T03:07:53;17.33;;;11.37;;
11970;SDS011;6045;42.682;23.294;2022-12-16T03:10:24;25.50;;;11.10;;
11970;SDS011;6045;42.682;23.294;2022-12-16T03:12:54;21.17;;;13.13;;
11970;SDS011;6045;42.682;23.294;2022-12-16T03:15:24;21.80;;;12.30;;
11970;SDS011;6045;42.682;23.294;2022-12-16T03:17:56;13.93;;;11.73;;
11970;SDS011;6045;42.682;23.294;2022-12-16T03:20:25;18.77;;;10.93;;
11970;SDS011;6045;42.682;23.294;2022-12-16T03:22:56;18.03;;;12.70;;
11970;SDS011;6045;42.682;23.294;2022-12-16T03:25:29;27.53;;;13.67;;
11970;SDS011;6045;42.682;23.294;2022-12-16T03:28:02;19.10;;;12.37;;
11970;SDS011;6045;42.682;23.294;2022-12-16T03:30:37;18.83;;;12.47;;
11970;SDS011;6045;42.682;23.294;2022-12-16T03:33:09;13.03;;;11.40;;
11970;SDS011;6045;42.682;23.294;2022-12-16T03:35:41;21.70;;;13.23;;
11970;SDS011;6045;42.682;23.294;2022-12-16T03:38:13;22.03;;;12.93;;
11970;SDS011;6045;42.682;23.294;2022-12-16T03:40:41;23.43;;;11.67;;
11970;SDS011;6045;42.682;23.294;2022-12-16T03:43:09;20.60;;;11.33;;
11970;SDS011;6045;42.682;23.294;2022-12-16T03:45:39;30.33;;;13.63;;
11970;SDS011;6045;42.682;23.294;2022-12-16T03:48:11;21.17;;;12.20;;
11970;SDS011;6045;42.682;23.294;2022-12-16T03:50:40;21.43;;;11.37;;
11970;SDS011;6045;42.682;23.294;2022-12-16T03:53:07;21.47;;;11.20;;
11970;SDS011;6045;42.682;23.294;2022-12-16T03:55:34;20.60;;;12.13;;
11970;SDS011;6045;42.682;23.294;2022-12-16T03:58:01;23.33;;;11.83;;
11970;SDS011;6045;42.682;23.294;2022-12-16T04:00:28;22.57;;;12.47;;
11970;SDS011;6045;42.682;23.294;2022-12-16T04:02:55;23.13;;;12.80;;
11970;SDS011;6045;42.682;23.294;2022-12-16T04:05:23;20.43;;;10.07;;
11970;SDS011;6045;42.682;23.294;2022-12-16T04:07:50;15.00;;;9.93;;
11970;SDS011;6045;42.682;23.294;2022-12-16T04:10:17;13.07;;;9.07;;
11970;SDS011;6045;42.682;23.294;2022-12-16T04:13:06;13.67;;;8.67;;
11970;SDS011;6045;42.682;23.294;2022-12-16T04:15:51;14.63;;;8.63;;
11970;SDS011;6045;42.682;23.294;2022-12-16T04:18:35;16.87;;;10.37;;
11970;SDS011;6045;42.682;23.294;2022-12-16T04:21:22;16.80;;;10.13;;
11970;SDS011;6045;42.682;23.294;2022-12-16T04:24:07;15.73;;;9.90;;
11970;SDS011;6045;42.682;23.294;2022-12-16T04:26:45;15.20;;;9.57;;
11970;SDS011;6045;42.682;23.294;2022-12-16T04:29:29;12.20;;;9.33;;
11970;SDS011;6045;42.682;23.294;2022-12-16T04:31:56;16.70;;;7.80;;
11970;SDS011;6045;42.682;23.294;2022-12-16T04:34:24;17.57;;;10.60;;
11970;SDS011;6045;42.682;23.294;2022-12-16T04:36:51;13.30;;;9.43;;
11970;SDS011;6045;42.682;23.294;2022-12-16T04:39:35;15.77;;;9.43;;
11970;SDS011;6045;42.682;23.294;2022-12-16T04:42:19;19.13;;;10.37;;
11970;SDS011;6045;42.682;23.294;2022-12-16T04:45:04;18.13;;;9.60;;
11970;SDS011;6045;42.682;23.294;2022-12-16T04:47:49;18.93;;;8.50;;
11970;SDS011;6045;42.682;23.294;2022-12-16T04:50:32;13.43;;;7.80;;
11970;SDS011;6045;42.682;23.294;2022-12-16T04:53:18;18.67;;;9.93;;
11970;SDS011;6045;42.682;23.294;2022-12-16T04:56:03;15.53;;;8.33;;
11970;SDS011;6045;42.682;23.294;2022-12-16T04:58:47;15.27;;;8.67;;
11970;SDS011;6045;42.682;23.294;2022-12-16T05:01:31;16.67;;;11.07;;
11970;SDS011;6045;42.682;23.294;2022-12-16T05:04:15;21.43;;;7.20;;
11970;SDS011;6045;42.682;23.294;2022-12-16T05:06:59;17.37;;;11.07;;
11970;SDS011;6045;42.682;23.294;2022-12-16T05:09:44;20.73;;;9.63;;
11970;SDS011;6045;42.682;23.294;2022-12-16T05:12:28;10.87;;;8.67;;
11970;SDS011;6045;42.682;23.294;2022-12-16T05:15:13;9.07;;;8.00;;
11970;SDS011;6045;42.682;23.294;2022-12-16T05:17:57;13.07;;;8.13;;
11970;SDS011;6045;42.682;23.294;2022-12-16T05:20:42;12.47;;;9.70;;
11970;SDS011;6045;42.682;23.294;2022-12-16T05:23:26;14.50;;;9.47;;
11970;SDS011;6045;42.682;23.294;2022-12-16T05:26:11;14.80;;;7.57;;
11970;SDS011;6045;42.682;23.294;2022-12-16T05:28:56;14.97;;;9.70;;
11970;SDS011;6045;42.682;23.294;2022-12-16T05:31:37;13.27;;;8.23;;
11970;SDS011;6045;42.682;23.294;2022-12-16T05:34:26;13.20;;;11.50;;
11970;SDS011;6045;42.682;23.294;2022-12-16T05:37:10;17.20;;;10.27;;
11970;SDS011;6045;42.682;23.294;2022-12-16T05:39:55;18.10;;;10.80;;
11970;SDS011;6045;42.682;23.294;2022-12-16T05:42:40;13.40;;;8.93;;
11970;SDS011;6045;42.682;23.294;2022-12-16T05:45:27;19.03;;;10.37;;
11970;SDS011;6045;42.682;23.294;2022-12-16T05:48:11;21.57;;;13.30;;
11970;SDS011;6045;42.682;23.294;2022-12-16T05:50:55;14.83;;;10.97;;
11970;SDS011;6045;42.682;23.294;2022-12-16T05:53:39;17.73;;;11.03;;
11970;SDS011;6045;42.682;23.294;2022-12-16T05:56:23;20.67;;;12.43;;
11970;SDS011;6045;42.682;23.294;2022-12-16T05:59:09;22.63;;;10.90;;
11970;SDS011;6045;42.682;23.294;2022-12-16T06:01:53;16.77;;;11.30;;
11970;SDS011;6045;42.682;23.294;2022-12-16T06:04:37;20.13;;;11.67;;
11970;SDS011;6045;42.682;23.294;2022-12-16T06:07:21;16.83;;;10.77;;
11970;SDS011;6045;42.682;23.294;2022-12-16T06:10:05;13.83;;;9.73;;
11970;SDS011;6045;42.682;23.294;2022-12-16T06:12:50;21.53;;;11.27;;
11970;SDS011;6045;42.682;23.294;2022-12-16T06:15:35;21.70;;;11.33;;
11970;SDS011;6045;42.682;23.294;2022-12-16T06:18:19;13.80;;;8.57;;
11970;SDS011;6045;42.682;23.294;2022-12-16T06:24:26;17.47;;;10.50;;
11970;SDS011;6045;42.682;23.294;2022-12-16T06:27:09;14.87;;;8.57;;
11970;SDS011;6045;42.682;23.294;2022-12-16T06:29:53;15.50;;;9.53;;
11970;SDS011;6045;42.682;23.294;2022-12-16T06:32:39;17.37;;;9.03;;
11970;SDS011;6045;42.682;23.294;2022-12-16T06:35:28;17.23;;;9.67;;
11970;SDS011;6045;42.682;23.294;2022-12-16T06:38:12;14.33;;;9.20;;
11970;SDS011;6045;42.682;23.294;2022-12-16T06:40:56;12.73;;;9.23;;
11970;SDS011;6045;42.682;23.294;2022-12-16T06:43:41;20.40;;;8.70;;
11970;SDS011;6045;42.682;23.294;2022-12-16T06:46:25;18.43;;;8.40;;
11970;SDS011;6045;42.682;23.294;2022-12-16T06:52:45;14.10;;;8.70;;
11970;SDS011;6045;42.682;23.294;2022-12-16T06:59:17;15.57;;;8.03;;
11970;SDS011;6045;42.682;23.294;2022-12-16T07:08:48;19.77;;;8.87;;
11970;SDS011;6045;42.682;23.294;2022-12-16T07:11:32;17.53;;;7.47;;
11970;SDS011;6045;42.682;23.294;2022-12-16T07:14:16;15.40;;;9.77;;
11970;SDS011;6045;42.682;23.294;2022-12-16T07:17:00;25.53;;;9.37;;
11970;SDS011;6045;42.682;23.294;2022-12-16T07:19:44;16.60;;;9.93;;
11970;SDS011;6045;42.682;23.294;2022-12-16T07:22:31;16.93;;;9.73;;
11970;SDS011;6045;42.682;23.294;2022-12-16T07:25:17;15.67;;;9.13;;
11970;SDS011;6045;42.682;23.294;2022-12-16T07:28:02;10.93;;;8.73;;
11970;SDS011;6045;42.682;23.294;2022-12-16T07:30:46;10.63;;;5.50;;
11970;SDS011;6045;42.682;23.294;2022-12-16T07:33:30;18.63;;;11.43;;
11970;SDS011;6045;42.682;23.294;2022-12-16T07:36:14;17.73;;;10.30;;
11970;SDS011;6045;42.682;23.294;2022-12-16T07:38:59;16.80;;;11.50;;
11970;SDS011;6045;42.682;23.294;2022-12-16T07:41:44;24.67;;;13.37;;
11970;SDS011;6045;42.682;23.294;2022-12-16T07:44:29;21.70;;;10.87;;
11970;SDS011;6045;42.682;23.294;2022-12-16T07:47:13;20.60;;;11.23;;
11970;SDS011;6045;42.682;23.294;2022-12-16T07:50:03;15.43;;;9.37;;
11970;SDS011;6045;42.682;23.294;2022-12-16T07:52:52;22.87;;;12.40;;
11970;SDS011;6045;42.682;23.294;2022-12-16T07:55:37;22.70;;;11.10;;
11970;SDS011;6045;42.682;23.294;2022-12-16T07:58:22;29.00;;;10.33;;
11970;SDS011;6045;42.682;23.294;2022-12-16T08:01:06;21.20;;;12.67;;
11970;SDS011;6045;42.682;23.294;2022-12-16T08:03:50;11.47;;;7.33;;
11970;SDS011;6045;42.682;23.294;2022-12-16T08:06:35;15.87;;;11.33;;
11970;SDS011;6045;42.682;23.294;2022-12-16T08:09:15;17.57;;;9.00;;
11970;SDS011;6045;42.682;23.294;2022-12-16T08:12:00;18.83;;;9.47;;
11970;SDS011;6045;42.682;23.294;2022-12-16T08:14:45;18.37;;;10.23;;
11970;SDS011;6045;42.682;23.294;2022-12-16T08:17:29;19.97;;;8.73;;
11970;SDS011;6045;42.682;23.294;2022-12-16T08:20:13;20.03;;;10.70;;
11970;SDS011;6045;42.682;23.294;2022-12-16T08:22:57;21.53;;;10.03;;
11970;SDS011;6045;42.682;23.294;2022-12-16T08:25:41;15.97;;;8.00;;
11970;SDS011;6045;42.682;23.294;2022-12-16T08:28:25;20.63;;;8.77;;
11970;SDS011;6045;42.682;23.294;2022-12-16T08:31:11;22.47;;;13.63;;
11970;SDS011;6045;42.682;23.294;2022-12-16T08:33:56;25.37;;;9.07;;
11970;SDS011;6045;42.682;23.294;2022-12-16T08:36:40;17.20;;;10.40;;
11970;SDS011;6045;42.682;23.294;2022-12-16T08:39:25;21.50;;;11.53;;
11970;SDS011;6045;42.682;23.294;2022-12-16T08:42:09;31.57;;;14.63;;
11970;SDS011;6045;42.682;23.294;2022-12-16T08:44:53;20.07;;;11.50;;
11970;SDS011;6045;42.682;23.294;2022-12-16T08:54:40;18.00;;;8.50;;
11970;SDS011;6045;42.682;23.294;2022-12-16T08:57:24;18.27;;;9.07;;
11970;SDS011;6045;42.682;23.294;2022-12-16T09:00:09;21.80;;;10.10;;
11970;SDS011;6045;42.682;23.294;2022-12-16T09:02:54;17.90;;;11.07;;
11970;SDS011;6045;42.682;23.294;2022-12-16T09:05:39;18.77;;;7.13;;
11970;SDS011;6045;42.682;23.294;2022-12-16T09:08:23;22.93;;;7.37;;
11970;SDS011;6045;42.682;23.294;2022-12-16T09:11:09;16.63;;;9.07;;
11970;SDS011;6045;42.682;23.294;2022-12-16T09:13:53;20.97;;;9.57;;
11970;SDS011;6045;42.682;23.294;2022-12-16T09:16:37;18.80;;;7.27;;
11970;SDS011;6045;42.682;23.294;2022-12-16T09:19:22;15.70;;;8.30;;
11970;SDS011;6045;42.682;23.294;2022-12-16T09:22:06;12.23;;;7.60;;
11970;SDS011;6045;42.682;23.294;2022-12-16T09:24:51;24.83;;;9.30;;
11970;SDS011;6045;42.682;23.294;2022-12-16T09:27:36;15.37;;;10.33;;
11970;SDS011;6045;42.682;23.294;2022-12-16T09:30:20;16.33;;;9.40;;
11970;SDS011;6045;42.682;23.294;2022-12-16T09:33:04;24.33;;;11.10;;
11970;SDS011;6045;42.682;23.294;2022-12-16T09:35:49;16.20;;;9.67;;
11970;SDS011;6045;42.682;23.294;2022-12-16T09:38:33;21.97;;;12.07;;
11970;SDS011;6045;42.682;23.294;2022-12-16T09:41:21;21.53;;;10.77;;
11970;SDS011;6045;42.682;23.294;2022-12-16T09:44:14;26.37;;;13.77;;
11970;SDS011;6045;42.682;23.294;2022-12-16T09:47:07;29.73;;;16.47;;
11970;SDS011;6045;42.682;23.294;2022-12-16T09:50:00;29.83;;;15.17;;
11970;SDS011;6045;42.682;23.294;2022-12-16T09:52:47;23.90;;;10.87;;
11970;SDS011;6045;42.682;23.294;2022-12-16T09:55:37;20.33;;;10.97;;
11970;SDS011;6045;42.682;23.294;2022-12-16T09:58:23;20.10;;;10.97;;
11970;SDS011;6045;42.682;23.294;2022-12-16T10:01:13;17.47;;;11.17;;
11970;SDS011;6045;42.682;23.294;2022-12-16T10:03:58;20.87;;;11.57;;
11970;SDS011;6045;42.682;23.294;2022-12-16T10:06:43;23.47;;;13.93;;
11970;SDS011;6045;42.682;23.294;2022-12-16T10:09:30;25.63;;;13.33;;
11970;SDS011;6045;42.682;23.294;2022-12-16T10:12:25;24.80;;;13.23;;
11970;SDS011;6045;42.682;23.294;2022-12-16T10:15:23;20.80;;;11.48;;
11970;SDS011;6045;42.682;23.294;2022-12-16T10:18:18;28.00;;;12.93;;
11970;SDS011;6045;42.682;23.294;2022-12-16T10:21:14;23.65;;;12.18;;
11970;SDS011;6045;42.682;23.294;2022-12-16T10:24:05;17.23;;;11.68;;
11970;SDS011;6045;42.682;23.294;2022-12-16T10:26:59;20.13;;;12.98;;
11970;SDS011;6045;42.682;23.294;2022-12-16T10:29:48;20.55;;;13.00;;
11970;SDS011;6045;42.682;23.294;2022-12-16T10:32:34;21.45;;;12.52;;
11970;SDS011;6045;42.682;23.294;2022-12-16T10:35:40;19.73;;;12.70;;
11970;SDS011;6045;42.682;23.294;2022-12-16T10:38:27;20.15;;;11.77;;
11970;SDS011;6045;42.682;23.294;2022-12-16T10:41:19;21.77;;;12.23;;
11970;SDS011;6045;42.682;23.294;2022-12-16T10:44:10;24.83;;;13.38;;
11970;SDS011;6045;42.682;23.294;2022-12-16T10:47:01;24.92;;;13.73;;
11970;SDS011;6045;42.682;23.294;2022-12-16T10:49:46;23.98;;;14.55;;
11970;SDS011;6045;42.682;23.294;2022-12-16T10:52:32;23.52;;;14.13;;
11970;SDS011;6045;42.682;23.294;2022-12-16T10:55:18;22.65;;;13.88;;
11970;SDS011;6045;42.682;23.294;2022-12-16T10:58:19;20.02;;;12.82;;
11970;SDS011;6045;42.682;23.294;2022-12-16T11:01:20;23.13;;;13.45;;
11970;SDS011;6045;42.682;23.294;2022-12-16T11:07:21;26.15;;;14.50;;
11970;SDS011;6045;42.682;23.294;2022-12-16T11:10:31;23.65;;;14.73;;
11970;SDS011;6045;42.682;23.294;2022-12-16T11:13:19;22.17;;;14.80;;
11970;SDS011;6045;42.682;23.294;2022-12-16T11:16:08;22.65;;;13.70;;
11970;SDS011;6045;42.682;23.294;2022-12-16T11:18:58;26.48;;;14.60;;
11970;SDS011;6045;42.682;23.294;2022-12-16T11:21:43;21.92;;;13.43;;
11970;SDS011;6045;42.682;23.294;2022-12-16T11:24:29;18.35;;;13.05;;
11970;SDS011;6045;42.682;23.294;2022-12-16T11:27:15;22.70;;;14.15;;
11970;SDS011;6045;42.682;23.294;2022-12-16T11:30:14;22.05;;;14.55;;
11970;SDS011;6045;42.682;23.294;2022-12-16T11:33:16;22.58;;;14.15;;
11970;SDS011;6045;42.682;23.294;2022-12-16T11:36:08;18.90;;;13.38;;
11970;SDS011;6045;42.682;23.294;2022-12-16T11:38:56;22.77;;;14.23;;
11970;SDS011;6045;42.682;23.294;2022-12-16T11:41:43;21.50;;;14.05;;
11970;SDS011;6045;42.682;23.294;2022-12-16T11:44:32;19.27;;;12.63;;
11970;SDS011;6045;42.682;23.294;2022-12-16T11:50:47;20.33;;;13.82;;
11970;SDS011;6045;42.682;23.294;2022-12-16T11:53:36;21.80;;;13.75;;
11970;SDS011;6045;42.682;23.294;2022-12-16T11:56:29;17.23;;;12.88;;
11970;SDS011;6045;42.682;23.294;2022-12-16T11:59:18;20.75;;;12.38;;
11970;SDS011;6045;42.682;23.294;2022-12-16T12:02:11;19.08;;;12.30;;
11970;SDS011;6045;42.682;23.294;2022-12-16T12:04:59;17.55;;;11.30;;
11970;SDS011;6045;42.682;23.294;2022-12-16T12:07:46;15.15;;;9.82;;
11970;SDS011;6045;42.682;23.294;2022-12-16T12:10:46;19.23;;;10.27;;
11970;SDS011;6045;42.682;23.294;2022-12-16T12:13:41;19.45;;;10.77;;
11970;SDS011;6045;42.682;23.294;2022-12-16T12:16:36;17.25;;;10.02;;
11970;SDS011;6045;42.682;23.294;2022-12-16T12:19:41;16.40;;;11.02;;
11970;SDS011;6045;42.682;23.294;2022-12-16T12:22:33;13.45;;;10.75;;
11970;SDS011;6045;42.682;23.294;2022-12-16T12:25:20;14.68;;;10.18;;
11970;SDS011;6045;42.682;23.294;2022-12-16T12:28:11;15.13;;;11.32;;
11970;SDS011;6045;42.682;23.294;2022-12-16T12:31:08;14.55;;;9.77;;
11970;SDS011;6045;42.682;23.294;2022-12-16T12:34:10;15.65;;;10.77;;
11970;SDS011;6045;42.682;23.294;2022-12-16T12:54:42;13.18;;;8.55;;
11970;SDS011;6045;42.682;23.294;2022-12-16T13:04:06;17.42;;;9.77;;
11970;SDS011;6045;42.682;23.294;2022-12-16T13:07:12;17.80;;;10.10;;
11970;SDS011;6045;42.682;23.294;2022-12-16T13:10:28;15.65;;;9.57;;
11970;SDS011;6045;42.682;23.294;2022-12-16T13:23:27;15.20;;;10.38;;
11970;SDS011;6045;42.682;23.294;2022-12-16T13:29:44;19.73;;;11.35;;
11970;SDS011;6045;42.682;23.294;2022-12-16T13:32:52;16.48;;;10.98;;
11970;SDS011;6045;42.682;23.294;2022-12-16T13:35:46;16.30;;;9.18;;
11970;SDS011;6045;42.682;23.294;2022-12-16T13:38:35;16.67;;;10.75;;
11970;SDS011;6045;42.682;23.294;2022-12-16T13:41:46;17.42;;;9.82;;
11970;SDS011;6045;42.682;23.294;2022-12-16T13:48:00;19.58;;;9.80;;
11970;SDS011;6045;42.682;23.294;2022-12-16T13:51:07;20.15;;;11.77;;
11970;SDS011;6045;42.682;23.294;2022-12-16T13:53:51;16.38;;;10.70;;
11970;SDS011;6045;42.682;23.294;2022-12-16T13:56:37;23.33;;;15.27;;
11970;SDS011;6045;42.682;23.294;2022-12-16T13:59:31;15.57;;;10.02;;
11970;SDS011;6045;42.682;23.294;2022-12-16T14:02:23;14.70;;;8.98;;
11970;SDS011;6045;42.682;23.294;2022-12-16T14:05:13;14.95;;;9.82;;
11970;SDS011;6045;42.682;23.294;2022-12-16T14:08:10;17.52;;;9.90;;
11970;SDS011;6045;42.682;23.294;2022-12-16T14:10:59;15.52;;;9.30;;
11970;SDS011;6045;42.682;23.294;2022-12-16T14:13:47;16.98;;;10.30;;
11970;SDS011;6045;42.682;23.294;2022-12-16T14:19:49;15.40;;;8.85;;
11970;SDS011;6045;42.682;23.294;2022-12-16T14:22:44;13.55;;;9.00;;
11970;SDS011;6045;42.682;23.294;2022-12-16T14:25:35;17.65;;;9.52;;
11970;SDS011;6045;42.682;23.294;2022-12-16T14:28:22;18.08;;;10.27;;
11970;SDS011;6045;42.682;23.294;2022-12-16T14:31:13;13.93;;;8.73;;
11970;SDS011;6045;42.682;23.294;2022-12-16T14:34:00;20.65;;;10.35;;
11970;SDS011;6045;42.682;23.294;2022-12-16T14:36:48;15.07;;;9.45;;
11970;SDS011;6045;42.682;23.294;2022-12-16T14:39:36;19.20;;;9.87;;
11970;SDS011;6045;42.682;23.294;2022-12-16T14:42:23;17.87;;;9.93;;
11970;SDS011;6045;42.682;23.294;2022-12-16T14:45:21;17.53;;;9.37;;
11970;SDS011;6045;42.682;23.294;2022-12-16T14:48:14;17.33;;;8.80;;
11970;SDS011;6045;42.682;23.294;2022-12-16T14:51:24;17.47;;;9.23;;
11970;SDS011;6045;42.682;23.294;2022-12-16T14:54:26;15.50;;;8.90;;
11970;SDS011;6045;42.682;23.294;2022-12-16T14:57:19;17.60;;;9.80;;
11970;SDS011;6045;42.682;23.294;2022-12-16T15:00:12;13.87;;;10.40;;
11970;SDS011;6045;42.682;23.294;2022-12-16T15:03:00;18.07;;;9.53;;
11970;SDS011;6045;42.682;23.294;2022-12-16T15:12:24;15.37;;;9.83;;
11970;SDS011;6045;42.682;23.294;2022-12-16T15:15:12;17.43;;;9.90;;
11970;SDS011;6045;42.682;23.294;2022-12-16T15:17:59;16.37;;;10.23;;
11970;SDS011;6045;42.682;23.294;2022-12-16T15:20:47;18.47;;;10.47;;
11970;SDS011;6045;42.682;23.294;2022-12-16T15:23:33;15.90;;;10.23;;
11970;SDS011;6045;42.682;23.294;2022-12-16T15:26:24;18.37;;;9.37;;
11970;SDS011;6045;42.682;23.294;2022-12-16T15:32:26;19.40;;;10.83;;
11970;SDS011;6045;42.682;23.294;2022-12-16T15:35:29;19.90;;;10.93;;
11970;SDS011;6045;42.682;23.294;2022-12-16T15:41:19;16.13;;;10.80;;
11970;SDS011;6045;42.682;23.294;2022-12-16T15:44:14;19.60;;;10.33;;
11970;SDS011;6045;42.682;23.294;2022-12-16T15:46:59;18.40;;;11.53;;
11970;SDS011;6045;42.682;23.294;2022-12-16T15:49:44;22.50;;;13.20;;
11970;SDS011;6045;42.682;23.294;2022-12-16T15:52:33;23.40;;;13.67;;
11970;SDS011;6045;42.682;23.294;2022-12-16T15:55:22;21.67;;;14.77;;
11970;SDS011;6045;42.682;23.294;2022-12-16T15:58:15;24.90;;;14.53;;
11970;SDS011;6045;42.682;23.294;2022-12-16T16:01:05;27.17;;;14.10;;
11970;SDS011;6045;42.682;23.294;2022-12-16T16:03:51;19.10;;;12.20;;
11970;SDS011;6045;42.682;23.294;2022-12-16T16:06:37;20.47;;;12.47;;
11970;SDS011;6045;42.682;23.294;2022-12-16T16:09:27;22.83;;;13.13;;
11970;SDS011;6045;42.682;23.294;2022-12-16T16:12:14;18.97;;;11.53;;
11970;SDS011;6045;42.682;23.294;2022-12-16T16:15:00;21.97;;;12.27;;
11970;SDS011;6045;42.682;23.294;2022-12-16T16:17:47;18.17;;;11.83;;
11970;SDS011;6045;42.682;23.294;2022-12-16T16:20:37;21.43;;;14.83;;
11970;SDS011;6045;42.682;23.294;2022-12-16T16:23:22;26.40;;;15.33;;
11970;SDS011;6045;42.682;23.294;2022-12-16T16:26:07;25.07;;;16.10;;
11970;SDS011;6045;42.682;23.294;2022-12-16T16:28:53;27.93;;;15.87;;
11970;SDS011;6045;42.682;23.294;2022-12-16T16:31:39;24.73;;;14.53;;
11970;SDS011;6045;42.682;23.294;2022-12-16T16:34:39;24.27;;;15.93;;
11970;SDS011;6045;42.682;23.294;2022-12-16T16:37:23;26.90;;;15.00;;
11970;SDS011;6045;42.682;23.294;2022-12-16T16:40:11;28.37;;;16.53;;
11970;SDS011;6045;42.682;23.294;2022-12-16T16:43:01;27.63;;;16.40;;
11970;SDS011;6045;42.682;23.294;2022-12-16T16:45:46;26.53;;;16.37;;
11970;SDS011;6045;42.682;23.294;2022-12-16T16:48:36;27.73;;;15.67;;
11970;SDS011;6045;42.682;23.294;2022-12-16T16:51:22;23.73;;;16.10;;
11970;SDS011;6045;42.682;23.294;2022-12-16T16:54:06;22.43;;;14.67;;
11970;SDS011;6045;42.682;23.294;2022-12-16T16:56:50;22.63;;;13.40;;
11970;SDS011;6045;42.682;23.294;2022-12-16T16:59:34;28.77;;;16.03;;
11970;SDS011;6045;42.682;23.294;2022-12-16T17:02:19;31.70;;;16.70;;
11970;SDS011;6045;42.682;23.294;2022-12-16T17:05:05;28.27;;;14.03;;
11970;SDS011;6045;42.682;23.294;2022-12-16T17:07:47;32.83;;;17.53;;
11970;SDS011;6045;42.682;23.294;2022-12-16T17:10:32;31.17;;;17.30;;
11970;SDS011;6045;42.682;23.294;2022-12-16T17:13:16;26.40;;;16.47;;
11970;SDS011;6045;42.682;23.294;2022-12-16T17:16:00;34.33;;;18.23;;
11970;SDS011;6045;42.682;23.294;2022-12-16T17:18:45;31.87;;;17.17;;
11970;SDS011;6045;42.682;23.294;2022-12-16T17:21:29;26.93;;;16.20;;
11970;SDS011;6045;42.682;23.294;2022-12-16T17:24:15;39.60;;;17.63;;
11970;SDS011;6045;42.682;23.294;2022-12-16T17:27:05;28.17;;;15.43;;
11970;SDS011;6045;42.682;23.294;2022-12-16T17:29:59;35.20;;;17.93;;